sensor_id;sensor_type;location;lat;lon;timestamp;P1;durP1;ratioP1;P2;durP2;ratioP2
3997;SDS011;61314;53.444;9.902;2022-10-16T00:02:09;5.93;;;5.40;;
3997;SDS011;61314;53.444;9.902;2022-10-16T00:04:36;8.50;;;5.40;;
3997;SDS011;61314;53.444;9.902;2022-10-16T00:07:03;8.90;;;4.17;;
3997;SDS011;61314;53.444;9.902;2022-10-16T00:09:30;5.53;;;4.30;;
3997;SDS011;61314;53.444;9.902;2022-10-16T00:11:57;6.00;;;4.07;;
3997;SDS011;61314;53.444;9.902;2022-10-16T00:14:24;4.90;;;4.17;;
3997;SDS011;61314;53.444;9.902;2022-10-16T00:16:51;5.30;;;3.23;;
3997;SDS011;61314;53.444;9.902;2022-10-16T00:19:18;5.90;;;2.83;;
3997;SDS011;61314;53.444;9.902;2022-10-16T00:21:45;6.37;;;2.97;;
3997;SDS011;61314;53.444;9.902;2022-10-16T00:24:12;5.00;;;3.40;;
3997;SDS011;61314;53.444;9.902;2022-10-16T00:26:40;6.20;;;3.10;;
3997;SDS011;61314;53.444;9.902;2022-10-16T00:29:07;6.40;;;3.63;;
3997;SDS011;61314;53.444;9.902;2022-10-16T00:31:34;3.93;;;2.33;;
3997;SDS011;61314;53.444;9.902;2022-10-16T00:34:01;4.40;;;3.10;;
3997;SDS011;61314;53.444;9.902;2022-10-16T00:36:28;4.23;;;3.20;;
3997;SDS011;61314;53.444;9.902;2022-10-16T00:38:56;7.23;;;2.70;;
3997;SDS011;61314;53.444;9.902;2022-10-16T00:41:29;7.97;;;3.03;;
3997;SDS011;61314;53.444;9.902;2022-10-16T00:43:57;3.80;;;2.70;;
3997;SDS011;61314;53.444;9.902;2022-10-16T00:46:28;6.80;;;2.80;;
3997;SDS011;61314;53.444;9.902;2022-10-16T00:49:00;6.93;;;2.70;;
3997;SDS011;61314;53.444;9.902;2022-10-16T00:51:32;5.10;;;2.73;;
3997;SDS011;61314;53.444;9.902;2022-10-16T00:54:00;4.67;;;2.93;;
3997;SDS011;61314;53.444;9.902;2022-10-16T00:56:28;5.13;;;2.70;;
3997;SDS011;61314;53.444;9.902;2022-10-16T00:58:55;3.43;;;2.90;;
3997;SDS011;61314;53.444;9.902;2022-10-16T01:01:23;9.77;;;2.60;;
3997;SDS011;61314;53.444;9.902;2022-10-16T01:03:50;5.47;;;2.87;;
3997;SDS011;61314;53.444;9.902;2022-10-16T01:14:06;3.30;;;3.00;;
3997;SDS011;61314;53.444;9.902;2022-10-16T01:16:37;11.13;;;2.83;;
3997;SDS011;61314;53.444;9.902;2022-10-16T01:19:12;6.43;;;2.77;;
3997;SDS011;61314;53.444;9.902;2022-10-16T01:21:41;3.63;;;2.10;;
3997;SDS011;61314;53.444;9.902;2022-10-16T01:24:17;4.30;;;2.63;;
3997;SDS011;61314;53.444;9.902;2022-10-16T01:32:24;4.60;;;2.20;;
3997;SDS011;61314;53.444;9.902;2022-10-16T01:34:57;2.70;;;2.50;;
3997;SDS011;61314;53.444;9.902;2022-10-16T01:37:33;3.60;;;2.70;;
3997;SDS011;61314;53.444;9.902;2022-10-16T01:40:02;4.23;;;2.80;;
3997;SDS011;61314;53.444;9.902;2022-10-16T01:42:34;4.50;;;2.53;;
3997;SDS011;61314;53.444;9.902;2022-10-16T01:45:02;12.67;;;3.67;;
3997;SDS011;61314;53.444;9.902;2022-10-16T01:47:32;2.97;;;2.73;;
3997;SDS011;61314;53.444;9.902;2022-10-16T01:50:00;3.27;;;2.97;;
3997;SDS011;61314;53.444;9.902;2022-10-16T01:52:30;4.50;;;3.10;;
3997;SDS011;61314;53.444;9.902;2022-10-16T01:54:58;3.37;;;3.00;;
3997;SDS011;61314;53.444;9.902;2022-10-16T01:57:26;4.40;;;2.50;;
3997;SDS011;61314;53.444;9.902;2022-10-16T01:59:56;2.60;;;2.50;;
3997;SDS011;61314;53.444;9.902;2022-10-16T02:02:24;5.60;;;3.37;;
3997;SDS011;61314;53.444;9.902;2022-10-16T02:04:55;6.23;;;2.60;;
3997;SDS011;61314;53.444;9.902;2022-10-16T02:07:23;3.73;;;2.57;;
3997;SDS011;61314;53.444;9.902;2022-10-16T02:09:50;9.13;;;2.70;;
3997;SDS011;61314;53.444;9.902;2022-10-16T02:12:20;7.43;;;2.40;;
3997;SDS011;61314;53.444;9.902;2022-10-16T02:14:49;8.77;;;2.40;;
3997;SDS011;61314;53.444;9.902;2022-10-16T02:17:16;9.53;;;2.50;;
3997;SDS011;61314;53.444;9.902;2022-10-16T02:19:44;5.70;;;2.30;;
3997;SDS011;61314;53.444;9.902;2022-10-16T02:22:15;6.60;;;2.23;;
3997;SDS011;61314;53.444;9.902;2022-10-16T02:24:46;1.73;;;1.63;;
3997;SDS011;61314;53.444;9.902;2022-10-16T02:29:47;2.27;;;1.60;;
3997;SDS011;61314;53.444;9.902;2022-10-16T02:32:17;4.43;;;1.90;;
3997;SDS011;61314;53.444;9.902;2022-10-16T02:34:46;9.33;;;2.23;;
3997;SDS011;61314;53.444;9.902;2022-10-16T02:37:15;10.67;;;2.60;;
3997;SDS011;61314;53.444;9.902;2022-10-16T02:39:43;4.43;;;2.23;;
3997;SDS011;61314;53.444;9.902;2022-10-16T02:42:13;4.23;;;2.00;;
3997;SDS011;61314;53.444;9.902;2022-10-16T02:44:41;3.70;;;2.00;;
3997;SDS011;61314;53.444;9.902;2022-10-16T02:47:08;3.00;;;1.97;;
3997;SDS011;61314;53.444;9.902;2022-10-16T02:49:35;6.33;;;2.27;;
3997;SDS011;61314;53.444;9.902;2022-10-16T02:52:02;4.70;;;2.10;;
3997;SDS011;61314;53.444;9.902;2022-10-16T02:54:29;7.90;;;2.93;;
3997;SDS011;61314;53.444;9.902;2022-10-16T02:56:56;4.03;;;2.30;;
3997;SDS011;61314;53.444;9.902;2022-10-16T02:59:23;5.07;;;2.00;;
3997;SDS011;61314;53.444;9.902;2022-10-16T03:01:50;5.53;;;2.03;;
3997;SDS011;61314;53.444;9.902;2022-10-16T03:04:17;6.17;;;2.10;;
3997;SDS011;61314;53.444;9.902;2022-10-16T03:06:44;5.13;;;1.80;;
3997;SDS011;61314;53.444;9.902;2022-10-16T03:09:11;3.10;;;2.10;;
3997;SDS011;61314;53.444;9.902;2022-10-16T03:11:38;6.40;;;2.10;;
3997;SDS011;61314;53.444;9.902;2022-10-16T03:14:05;4.00;;;1.87;;
3997;SDS011;61314;53.444;9.902;2022-10-16T03:16:32;5.40;;;1.93;;
3997;SDS011;61314;53.444;9.902;2022-10-16T03:18:59;2.60;;;1.90;;
3997;SDS011;61314;53.444;9.902;2022-10-16T03:21:26;4.80;;;2.13;;
3997;SDS011;61314;53.444;9.902;2022-10-16T03:23:53;4.73;;;2.90;;
3997;SDS011;61314;53.444;9.902;2022-10-16T03:26:20;4.57;;;2.00;;
3997;SDS011;61314;53.444;9.902;2022-10-16T03:28:47;5.67;;;2.77;;
3997;SDS011;61314;53.444;9.902;2022-10-16T03:31:14;5.93;;;1.93;;
3997;SDS011;61314;53.444;9.902;2022-10-16T03:33:41;3.63;;;2.00;;
3997;SDS011;61314;53.444;9.902;2022-10-16T03:36:08;3.30;;;2.13;;
3997;SDS011;61314;53.444;9.902;2022-10-16T03:38:35;2.60;;;2.27;;
3997;SDS011;61314;53.444;9.902;2022-10-16T03:41:02;5.03;;;2.40;;
3997;SDS011;61314;53.444;9.902;2022-10-16T03:43:30;3.00;;;2.47;;
3997;SDS011;61314;53.444;9.902;2022-10-16T03:45:57;5.87;;;2.27;;
3997;SDS011;61314;53.444;9.902;2022-10-16T03:48:24;2.20;;;1.93;;
3997;SDS011;61314;53.444;9.902;2022-10-16T03:50:51;2.97;;;2.13;;
3997;SDS011;61314;53.444;9.902;2022-10-16T03:53:18;2.37;;;2.10;;
3997;SDS011;61314;53.444;9.902;2022-10-16T03:55:45;2.37;;;1.90;;
3997;SDS011;61314;53.444;9.902;2022-10-16T03:58:12;4.13;;;1.80;;
3997;SDS011;61314;53.444;9.902;2022-10-16T04:00:42;7.13;;;2.47;;
3997;SDS011;61314;53.444;9.902;2022-10-16T04:03:10;3.30;;;2.17;;
3997;SDS011;61314;53.444;9.902;2022-10-16T04:05:37;4.70;;;1.83;;
3997;SDS011;61314;53.444;9.902;2022-10-16T04:08:04;6.80;;;1.90;;
3997;SDS011;61314;53.444;9.902;2022-10-16T04:10:31;7.07;;;2.20;;
3997;SDS011;61314;53.444;9.902;2022-10-16T04:12:58;2.50;;;2.23;;
3997;SDS011;61314;53.444;9.902;2022-10-16T04:15:25;3.33;;;2.50;;
3997;SDS011;61314;53.444;9.902;2022-10-16T04:17:52;3.50;;;2.50;;
3997;SDS011;61314;53.444;9.902;2022-10-16T04:20:19;3.90;;;1.70;;
3997;SDS011;61314;53.444;9.902;2022-10-16T04:22:47;4.03;;;2.10;;
3997;SDS011;61314;53.444;9.902;2022-10-16T04:25:14;12.70;;;2.80;;
3997;SDS011;61314;53.444;9.902;2022-10-16T04:27:41;6.60;;;3.20;;
3997;SDS011;61314;53.444;9.902;2022-10-16T04:30:11;2.80;;;2.40;;
3997;SDS011;61314;53.444;9.902;2022-10-16T04:32:38;5.83;;;2.63;;
3997;SDS011;61314;53.444;9.902;2022-10-16T04:35:05;4.90;;;2.60;;
3997;SDS011;61314;53.444;9.902;2022-10-16T04:37:33;2.80;;;2.60;;
3997;SDS011;61314;53.444;9.902;2022-10-16T04:40:00;3.40;;;3.07;;
3997;SDS011;61314;53.444;9.902;2022-10-16T04:42:27;5.67;;;3.50;;
3997;SDS011;61314;53.444;9.902;2022-10-16T04:44:54;5.30;;;3.43;;
3997;SDS011;61314;53.444;9.902;2022-10-16T04:47:21;3.60;;;3.30;;
3997;SDS011;61314;53.444;9.902;2022-10-16T04:49:48;9.50;;;3.87;;
3997;SDS011;61314;53.444;9.902;2022-10-16T04:52:15;4.13;;;3.07;;
3997;SDS011;61314;53.444;9.902;2022-10-16T04:54:43;4.03;;;2.90;;
3997;SDS011;61314;53.444;9.902;2022-10-16T04:57:11;6.70;;;3.50;;
3997;SDS011;61314;53.444;9.902;2022-10-16T04:59:38;3.40;;;3.10;;
3997;SDS011;61314;53.444;9.902;2022-10-16T05:02:05;7.10;;;3.30;;
3997;SDS011;61314;53.444;9.902;2022-10-16T05:04:32;4.20;;;3.80;;
3997;SDS011;61314;53.444;9.902;2022-10-16T05:06:59;4.30;;;3.20;;
3997;SDS011;61314;53.444;9.902;2022-10-16T05:09:26;3.97;;;2.83;;
3997;SDS011;61314;53.444;9.902;2022-10-16T05:11:53;6.13;;;4.30;;
3997;SDS011;61314;53.444;9.902;2022-10-16T05:14:20;5.33;;;3.30;;
3997;SDS011;61314;53.444;9.902;2022-10-16T05:16:47;7.27;;;3.57;;
3997;SDS011;61314;53.444;9.902;2022-10-16T05:19:14;7.17;;;3.03;;
3997;SDS011;61314;53.444;9.902;2022-10-16T05:21:52;6.40;;;3.33;;
3997;SDS011;61314;53.444;9.902;2022-10-16T05:24:19;3.60;;;2.63;;
3997;SDS011;61314;53.444;9.902;2022-10-16T05:26:46;4.70;;;3.57;;
3997;SDS011;61314;53.444;9.902;2022-10-16T05:29:14;4.70;;;3.00;;
3997;SDS011;61314;53.444;9.902;2022-10-16T05:31:41;17.83;;;3.17;;
3997;SDS011;61314;53.444;9.902;2022-10-16T05:34:08;3.40;;;2.60;;
3997;SDS011;61314;53.444;9.902;2022-10-16T05:36:35;9.40;;;2.70;;
3997;SDS011;61314;53.444;9.902;2022-10-16T05:39:02;3.23;;;2.90;;
3997;SDS011;61314;53.444;9.902;2022-10-16T05:41:29;4.00;;;3.27;;
3997;SDS011;61314;53.444;9.902;2022-10-16T05:43:56;4.80;;;2.63;;
3997;SDS011;61314;53.444;9.902;2022-10-16T05:46:23;5.07;;;2.80;;
3997;SDS011;61314;53.444;9.902;2022-10-16T05:48:51;10.77;;;4.00;;
3997;SDS011;61314;53.444;9.902;2022-10-16T05:51:19;4.00;;;2.90;;
3997;SDS011;61314;53.444;9.902;2022-10-16T05:53:46;8.20;;;3.03;;
3997;SDS011;61314;53.444;9.902;2022-10-16T05:56:13;4.70;;;3.10;;
3997;SDS011;61314;53.444;9.902;2022-10-16T05:58:40;8.97;;;3.57;;
3997;SDS011;61314;53.444;9.902;2022-10-16T06:01:12;5.20;;;3.60;;
3997;SDS011;61314;53.444;9.902;2022-10-16T06:03:40;6.37;;;3.83;;
3997;SDS011;61314;53.444;9.902;2022-10-16T06:08:38;4.70;;;3.43;;
3997;SDS011;61314;53.444;9.902;2022-10-16T06:11:06;7.97;;;3.40;;
3997;SDS011;61314;53.444;9.902;2022-10-16T06:13:33;4.93;;;4.53;;
3997;SDS011;61314;53.444;9.902;2022-10-16T06:16:00;8.60;;;4.00;;
3997;SDS011;61314;53.444;9.902;2022-10-16T06:18:28;7.17;;;4.50;;
3997;SDS011;61314;53.444;9.902;2022-10-16T06:20:56;6.63;;;4.70;;
3997;SDS011;61314;53.444;9.902;2022-10-16T06:23:23;4.60;;;3.87;;
3997;SDS011;61314;53.444;9.902;2022-10-16T06:25:50;4.60;;;4.20;;
3997;SDS011;61314;53.444;9.902;2022-10-16T06:28:17;9.27;;;5.20;;
3997;SDS011;61314;53.444;9.902;2022-10-16T06:30:44;11.93;;;4.90;;
3997;SDS011;61314;53.444;9.902;2022-10-16T06:33:11;8.20;;;4.47;;
3997;SDS011;61314;53.444;9.902;2022-10-16T06:35:38;6.10;;;4.97;;
3997;SDS011;61314;53.444;9.902;2022-10-16T06:38:05;5.93;;;5.43;;
3997;SDS011;61314;53.444;9.902;2022-10-16T06:40:32;8.30;;;4.57;;
3997;SDS011;61314;53.444;9.902;2022-10-16T06:42:59;10.83;;;5.60;;
3997;SDS011;61314;53.444;9.902;2022-10-16T06:45:27;20.87;;;6.00;;
3997;SDS011;61314;53.444;9.902;2022-10-16T06:47:54;5.97;;;5.30;;
3997;SDS011;61314;53.444;9.902;2022-10-16T06:50:21;8.30;;;5.77;;
3997;SDS011;61314;53.444;9.902;2022-10-16T06:52:48;9.00;;;6.07;;
3997;SDS011;61314;53.444;9.902;2022-10-16T06:55:15;11.10;;;6.17;;
3997;SDS011;61314;53.444;9.902;2022-10-16T06:57:43;9.20;;;5.80;;
3997;SDS011;61314;53.444;9.902;2022-10-16T07:00:10;6.60;;;5.80;;
3997;SDS011;61314;53.444;9.902;2022-10-16T07:02:37;6.37;;;5.73;;
3997;SDS011;61314;53.444;9.902;2022-10-16T07:05:04;8.07;;;5.60;;
3997;SDS011;61314;53.444;9.902;2022-10-16T07:07:31;8.60;;;5.70;;
3997;SDS011;61314;53.444;9.902;2022-10-16T07:09:58;9.90;;;6.30;;
3997;SDS011;61314;53.444;9.902;2022-10-16T07:12:25;5.60;;;5.10;;
3997;SDS011;61314;53.444;9.902;2022-10-16T07:14:53;5.43;;;4.93;;
3997;SDS011;61314;53.444;9.902;2022-10-16T07:17:21;5.97;;;5.20;;
3997;SDS011;61314;53.444;9.902;2022-10-16T07:19:48;9.43;;;4.73;;
3997;SDS011;61314;53.444;9.902;2022-10-16T07:22:15;9.87;;;4.70;;
3997;SDS011;61314;53.444;9.902;2022-10-16T07:24:42;10.13;;;5.90;;
3997;SDS011;61314;53.444;9.902;2022-10-16T07:27:15;4.80;;;4.30;;
3997;SDS011;61314;53.444;9.902;2022-10-16T07:29:42;6.50;;;4.87;;
3997;SDS011;61314;53.444;9.902;2022-10-16T07:32:09;9.10;;;5.03;;
3997;SDS011;61314;53.444;9.902;2022-10-16T07:34:36;6.03;;;4.20;;
3997;SDS011;61314;53.444;9.902;2022-10-16T07:37:03;4.53;;;4.17;;
3997;SDS011;61314;53.444;9.902;2022-10-16T07:39:30;5.73;;;4.70;;
3997;SDS011;61314;53.444;9.902;2022-10-16T07:41:57;8.33;;;4.80;;
3997;SDS011;61314;53.444;9.902;2022-10-16T07:44:24;9.70;;;4.90;;
3997;SDS011;61314;53.444;9.902;2022-10-16T07:46:51;6.73;;;4.40;;
3997;SDS011;61314;53.444;9.902;2022-10-16T07:49:18;5.27;;;4.77;;
3997;SDS011;61314;53.444;9.902;2022-10-16T07:51:45;7.20;;;5.07;;
3997;SDS011;61314;53.444;9.902;2022-10-16T07:54:12;5.53;;;5.00;;
3997;SDS011;61314;53.444;9.902;2022-10-16T07:56:39;6.70;;;5.20;;
3997;SDS011;61314;53.444;9.902;2022-10-16T07:59:09;10.40;;;4.50;;
3997;SDS011;61314;53.444;9.902;2022-10-16T08:01:36;6.73;;;4.00;;
3997;SDS011;61314;53.444;9.902;2022-10-16T08:04:03;4.40;;;4.00;;
3997;SDS011;61314;53.444;9.902;2022-10-16T08:06:34;4.20;;;3.83;;
3997;SDS011;61314;53.444;9.902;2022-10-16T08:09:01;7.87;;;4.83;;
3997;SDS011;61314;53.444;9.902;2022-10-16T08:11:28;5.93;;;4.07;;
3997;SDS011;61314;53.444;9.902;2022-10-16T08:13:55;5.97;;;5.40;;
3997;SDS011;61314;53.444;9.902;2022-10-16T08:16:22;9.47;;;4.77;;
3997;SDS011;61314;53.444;9.902;2022-10-16T08:18:49;4.83;;;3.53;;
3997;SDS011;61314;53.444;9.902;2022-10-16T08:21:19;4.33;;;3.93;;
3997;SDS011;61314;53.444;9.902;2022-10-16T08:23:47;4.83;;;4.30;;
3997;SDS011;61314;53.444;9.902;2022-10-16T08:26:23;6.50;;;4.67;;
3997;SDS011;61314;53.444;9.902;2022-10-16T08:28:50;4.33;;;3.77;;
3997;SDS011;61314;53.444;9.902;2022-10-16T08:31:20;5.57;;;4.10;;
3997;SDS011;61314;53.444;9.902;2022-10-16T08:33:47;7.27;;;4.27;;
3997;SDS011;61314;53.444;9.902;2022-10-16T08:36:15;9.90;;;4.07;;
3997;SDS011;61314;53.444;9.902;2022-10-16T08:38:42;4.83;;;3.50;;
3997;SDS011;61314;53.444;9.902;2022-10-16T08:46:21;3.67;;;3.30;;
3997;SDS011;61314;53.444;9.902;2022-10-16T08:48:53;6.03;;;3.40;;
3997;SDS011;61314;53.444;9.902;2022-10-16T08:51:24;6.50;;;2.87;;
3997;SDS011;61314;53.444;9.902;2022-10-16T08:53:56;4.77;;;3.90;;
3997;SDS011;61314;53.444;9.902;2022-10-16T08:56:24;3.80;;;3.23;;
3997;SDS011;61314;53.444;9.902;2022-10-16T08:58:52;5.20;;;2.90;;
3997;SDS011;61314;53.444;9.902;2022-10-16T09:01:32;9.63;;;3.90;;
3997;SDS011;61314;53.444;9.902;2022-10-16T09:06:54;5.37;;;3.60;;
3997;SDS011;61314;53.444;9.902;2022-10-16T09:14:52;3.10;;;2.40;;
3997;SDS011;61314;53.444;9.902;2022-10-16T09:17:30;3.23;;;2.63;;
3997;SDS011;61314;53.444;9.902;2022-10-16T09:22:36;4.40;;;2.60;;
3997;SDS011;61314;53.444;9.902;2022-10-16T09:25:10;8.83;;;2.60;;
3997;SDS011;61314;53.444;9.902;2022-10-16T09:27:37;2.47;;;2.27;;
3997;SDS011;61314;53.444;9.902;2022-10-16T09:30:38;3.00;;;2.13;;
3997;SDS011;61314;53.444;9.902;2022-10-16T09:32:58;2.20;;;2.00;;
3997;SDS011;61314;53.444;9.902;2022-10-16T09:35:27;2.33;;;1.83;;
3997;SDS011;61314;53.444;9.902;2022-10-16T09:37:58;5.67;;;2.40;;
3997;SDS011;61314;53.444;9.902;2022-10-16T09:40:28;2.80;;;1.90;;
3997;SDS011;61314;53.444;9.902;2022-10-16T09:43:46;3.90;;;2.17;;
3997;SDS011;61314;53.444;9.902;2022-10-16T09:45:58;2.60;;;1.57;;
3997;SDS011;61314;53.444;9.902;2022-10-16T09:48:31;2.80;;;2.03;;
3997;SDS011;61314;53.444;9.902;2022-10-16T09:51:00;5.97;;;2.10;;
3997;SDS011;61314;53.444;9.902;2022-10-16T09:53:37;2.83;;;2.33;;
3997;SDS011;61314;53.444;9.902;2022-10-16T09:56:05;5.20;;;1.90;;
3997;SDS011;61314;53.444;9.902;2022-10-16T09:58:38;8.27;;;2.77;;
3997;SDS011;61314;53.444;9.902;2022-10-16T10:01:11;3.97;;;2.43;;
3997;SDS011;61314;53.444;9.902;2022-10-16T10:03:40;2.47;;;1.70;;
3997;SDS011;61314;53.444;9.902;2022-10-16T10:06:27;4.90;;;1.97;;
3997;SDS011;61314;53.444;9.902;2022-10-16T10:08:59;4.60;;;2.10;;
3997;SDS011;61314;53.444;9.902;2022-10-16T10:11:37;4.90;;;1.70;;
3997;SDS011;61314;53.444;9.902;2022-10-16T10:14:05;4.33;;;2.23;;
3997;SDS011;61314;53.444;9.902;2022-10-16T10:16:33;4.90;;;1.90;;
3997;SDS011;61314;53.444;9.902;2022-10-16T10:19:00;4.97;;;1.83;;
3997;SDS011;61314;53.444;9.902;2022-10-16T10:21:27;2.40;;;1.80;;
3997;SDS011;61314;53.444;9.902;2022-10-16T10:23:55;3.63;;;2.20;;
3997;SDS011;61314;53.444;9.902;2022-10-16T10:26:27;4.33;;;2.00;;
3997;SDS011;61314;53.444;9.902;2022-10-16T10:34:00;4.23;;;1.40;;
3997;SDS011;61314;53.444;9.902;2022-10-16T10:36:35;3.27;;;1.80;;
3997;SDS011;61314;53.444;9.902;2022-10-16T10:39:12;9.73;;;1.73;;
3997;SDS011;61314;53.444;9.902;2022-10-16T10:41:59;2.93;;;1.80;;
3997;SDS011;61314;53.444;9.902;2022-10-16T10:46:59;10.20;;;2.40;;
3997;SDS011;61314;53.444;9.902;2022-10-16T10:49:34;4.23;;;1.67;;
3997;SDS011;61314;53.444;9.902;2022-10-16T10:52:19;5.50;;;2.10;;
3997;SDS011;61314;53.444;9.902;2022-10-16T10:55:10;1.87;;;1.40;;
3997;SDS011;61314;53.444;9.902;2022-10-16T10:58:27;5.23;;;1.90;;
3997;SDS011;61314;53.444;9.902;2022-10-16T11:00:37;5.03;;;1.20;;
3997;SDS011;61314;53.444;9.902;2022-10-16T11:05:56;3.73;;;1.63;;
3997;SDS011;61314;53.444;9.902;2022-10-16T11:08:27;7.90;;;1.53;;
3997;SDS011;61314;53.444;9.902;2022-10-16T11:11:00;7.13;;;1.50;;
3997;SDS011;61314;53.444;9.902;2022-10-16T11:13:51;5.97;;;1.30;;
3997;SDS011;61314;53.444;9.902;2022-10-16T11:16:32;3.03;;;1.73;;
3997;SDS011;61314;53.444;9.902;2022-10-16T11:21:43;5.13;;;1.30;;
3997;SDS011;61314;53.444;9.902;2022-10-16T11:24:16;4.90;;;1.30;;
3997;SDS011;61314;53.444;9.902;2022-10-16T11:26:45;2.83;;;1.30;;
3997;SDS011;61314;53.444;9.902;2022-10-16T11:29:16;5.00;;;1.20;;
3997;SDS011;61314;53.444;9.902;2022-10-16T11:31:46;2.80;;;1.40;;
3997;SDS011;61314;53.444;9.902;2022-10-16T11:34:26;3.57;;;1.30;;
3997;SDS011;61314;53.444;9.902;2022-10-16T11:37:14;2.00;;;1.00;;
3997;SDS011;61314;53.444;9.902;2022-10-16T11:39:43;3.63;;;1.50;;
3997;SDS011;61314;53.444;9.902;2022-10-16T11:42:11;4.67;;;1.37;;
3997;SDS011;61314;53.444;9.902;2022-10-16T11:45:02;3.90;;;1.10;;
3997;SDS011;61314;53.444;9.902;2022-10-16T11:53:16;7.43;;;1.60;;
3997;SDS011;61314;53.444;9.902;2022-10-16T11:55:46;2.33;;;1.20;;
3997;SDS011;61314;53.444;9.902;2022-10-16T11:58:16;4.40;;;1.60;;
3997;SDS011;61314;53.444;9.902;2022-10-16T12:00:47;5.00;;;1.67;;
3997;SDS011;61314;53.444;9.902;2022-10-16T12:03:25;5.70;;;1.83;;
3997;SDS011;61314;53.444;9.902;2022-10-16T12:06:14;8.50;;;1.70;;
3997;SDS011;61314;53.444;9.902;2022-10-16T12:08:45;3.40;;;1.13;;
3997;SDS011;61314;53.444;9.902;2022-10-16T12:11:34;9.47;;;1.57;;
3997;SDS011;61314;53.444;9.902;2022-10-16T12:16:55;7.33;;;1.27;;
3997;SDS011;61314;53.444;9.902;2022-10-16T12:19:25;5.60;;;3.00;;
3997;SDS011;61314;53.444;9.902;2022-10-16T12:21:54;7.40;;;1.43;;
3997;SDS011;61314;53.444;9.902;2022-10-16T12:24:32;8.30;;;1.37;;
3997;SDS011;61314;53.444;9.902;2022-10-16T12:27:00;7.50;;;1.77;;
3997;SDS011;61314;53.444;9.902;2022-10-16T12:29:30;4.63;;;1.60;;
3997;SDS011;61314;53.444;9.902;2022-10-16T12:31:58;9.13;;;1.73;;
3997;SDS011;61314;53.444;9.902;2022-10-16T12:34:37;1.97;;;0.83;;
3997;SDS011;61314;53.444;9.902;2022-10-16T12:37:09;2.27;;;1.17;;
3997;SDS011;61314;53.444;9.902;2022-10-16T12:39:37;2.77;;;1.20;;
3997;SDS011;61314;53.444;9.902;2022-10-16T12:42:05;2.70;;;1.13;;
3997;SDS011;61314;53.444;9.902;2022-10-16T12:44:44;1.40;;;1.17;;
3997;SDS011;61314;53.444;9.902;2022-10-16T12:47:24;7.23;;;1.70;;
3997;SDS011;61314;53.444;9.902;2022-10-16T12:50:02;2.70;;;1.47;;
3997;SDS011;61314;53.444;9.902;2022-10-16T12:52:37;4.03;;;1.47;;
3997;SDS011;61314;53.444;9.902;2022-10-16T12:55:05;7.03;;;1.43;;
3997;SDS011;61314;53.444;9.902;2022-10-16T12:57:42;2.50;;;1.23;;
3997;SDS011;61314;53.444;9.902;2022-10-16T13:00:16;4.10;;;1.17;;
3997;SDS011;61314;53.444;9.902;2022-10-16T13:05:43;5.33;;;1.33;;
3997;SDS011;61314;53.444;9.902;2022-10-16T13:16:07;4.67;;;1.50;;
3997;SDS011;61314;53.444;9.902;2022-10-16T13:18:50;10.13;;;2.00;;
3997;SDS011;61314;53.444;9.902;2022-10-16T13:21:32;3.83;;;1.47;;
3997;SDS011;61314;53.444;9.902;2022-10-16T13:24:36;5.10;;;1.57;;
3997;SDS011;61314;53.444;9.902;2022-10-16T13:26:57;6.30;;;1.60;;
3997;SDS011;61314;53.444;9.902;2022-10-16T13:29:31;8.67;;;1.47;;
3997;SDS011;61314;53.444;9.902;2022-10-16T13:31:59;9.50;;;1.70;;
3997;SDS011;61314;53.444;9.902;2022-10-16T13:34:27;3.87;;;1.60;;
3997;SDS011;61314;53.444;9.902;2022-10-16T13:36:54;1.67;;;1.30;;
3997;SDS011;61314;53.444;9.902;2022-10-16T13:39:23;1.90;;;1.17;;
3997;SDS011;61314;53.444;9.902;2022-10-16T13:42:03;3.13;;;1.27;;
3997;SDS011;61314;53.444;9.902;2022-10-16T13:44:36;6.70;;;2.20;;
3997;SDS011;61314;53.444;9.902;2022-10-16T13:47:04;4.10;;;1.30;;
3997;SDS011;61314;53.444;9.902;2022-10-16T13:49:31;5.17;;;1.33;;
3997;SDS011;61314;53.444;9.902;2022-10-16T13:51:58;4.70;;;1.20;;
3997;SDS011;61314;53.444;9.902;2022-10-16T13:54:26;4.70;;;1.50;;
3997;SDS011;61314;53.444;9.902;2022-10-16T13:57:04;4.63;;;1.87;;
3997;SDS011;61314;53.444;9.902;2022-10-16T13:59:51;5.50;;;1.40;;
3997;SDS011;61314;53.444;9.902;2022-10-16T14:04:52;7.20;;;1.40;;
3997;SDS011;61314;53.444;9.902;2022-10-16T14:07:24;4.40;;;1.30;;
3997;SDS011;61314;53.444;9.902;2022-10-16T14:09:52;2.60;;;1.40;;
3997;SDS011;61314;53.444;9.902;2022-10-16T14:12:19;6.97;;;1.43;;
3997;SDS011;61314;53.444;9.902;2022-10-16T14:14:52;3.73;;;1.47;;
3997;SDS011;61314;53.444;9.902;2022-10-16T14:17:30;4.70;;;2.13;;
3997;SDS011;61314;53.444;9.902;2022-10-16T14:19:59;5.23;;;1.53;;
3997;SDS011;61314;53.444;9.902;2022-10-16T14:22:35;5.67;;;1.53;;
3997;SDS011;61314;53.444;9.902;2022-10-16T14:25:15;4.07;;;1.63;;
3997;SDS011;61314;53.444;9.902;2022-10-16T14:30:34;4.23;;;1.50;;
3997;SDS011;61314;53.444;9.902;2022-10-16T14:33:02;1.93;;;0.97;;
3997;SDS011;61314;53.444;9.902;2022-10-16T14:37:57;3.37;;;1.30;;
3997;SDS011;61314;53.444;9.902;2022-10-16T14:40:26;6.30;;;1.90;;
3997;SDS011;61314;53.444;9.902;2022-10-16T14:42:53;5.83;;;1.60;;
3997;SDS011;61314;53.444;9.902;2022-10-16T14:45:21;3.27;;;1.27;;
3997;SDS011;61314;53.444;9.902;2022-10-16T14:47:51;2.80;;;1.43;;
3997;SDS011;61314;53.444;9.902;2022-10-16T14:50:19;4.60;;;1.40;;
3997;SDS011;61314;53.444;9.902;2022-10-16T14:52:46;4.33;;;1.30;;
3997;SDS011;61314;53.444;9.902;2022-10-16T14:55:13;3.70;;;1.43;;
3997;SDS011;61314;53.444;9.902;2022-10-16T14:57:40;5.47;;;1.40;;
3997;SDS011;61314;53.444;9.902;2022-10-16T15:00:19;4.20;;;1.30;;
3997;SDS011;61314;53.444;9.902;2022-10-16T15:02:47;4.17;;;1.50;;
3997;SDS011;61314;53.444;9.902;2022-10-16T15:05:19;3.23;;;1.10;;
3997;SDS011;61314;53.444;9.902;2022-10-16T15:07:46;3.53;;;1.00;;
3997;SDS011;61314;53.444;9.902;2022-10-16T15:10:15;3.20;;;1.50;;
3997;SDS011;61314;53.444;9.902;2022-10-16T15:12:43;2.13;;;1.50;;
3997;SDS011;61314;53.444;9.902;2022-10-16T15:15:23;2.60;;;1.27;;
3997;SDS011;61314;53.444;9.902;2022-10-16T15:17:52;5.70;;;1.00;;
3997;SDS011;61314;53.444;9.902;2022-10-16T15:20:23;2.13;;;1.23;;
3997;SDS011;61314;53.444;9.902;2022-10-16T15:22:50;4.90;;;1.33;;
3997;SDS011;61314;53.444;9.902;2022-10-16T15:25:35;5.40;;;1.90;;
3997;SDS011;61314;53.444;9.902;2022-10-16T15:28:03;4.00;;;1.30;;
3997;SDS011;61314;53.444;9.902;2022-10-16T15:30:30;1.93;;;1.30;;
3997;SDS011;61314;53.444;9.902;2022-10-16T15:32:58;2.77;;;1.40;;
3997;SDS011;61314;53.444;9.902;2022-10-16T15:35:25;2.23;;;1.30;;
3997;SDS011;61314;53.444;9.902;2022-10-16T15:37:52;4.00;;;1.50;;
3997;SDS011;61314;53.444;9.902;2022-10-16T15:40:19;6.57;;;1.70;;
3997;SDS011;61314;53.444;9.902;2022-10-16T15:42:47;7.70;;;1.93;;
3997;SDS011;61314;53.444;9.902;2022-10-16T15:45:14;6.40;;;1.53;;
3997;SDS011;61314;53.444;9.902;2022-10-16T15:47:41;5.70;;;1.80;;
3997;SDS011;61314;53.444;9.902;2022-10-16T15:50:11;4.43;;;1.30;;
3997;SDS011;61314;53.444;9.902;2022-10-16T15:52:39;5.03;;;2.03;;
3997;SDS011;61314;53.444;9.902;2022-10-16T15:55:07;5.60;;;1.40;;
3997;SDS011;61314;53.444;9.902;2022-10-16T15:57:35;5.77;;;2.13;;
3997;SDS011;61314;53.444;9.902;2022-10-16T16:00:05;4.23;;;1.80;;
3997;SDS011;61314;53.444;9.902;2022-10-16T16:02:36;3.57;;;1.77;;
3997;SDS011;61314;53.444;9.902;2022-10-16T16:05:03;2.80;;;1.20;;
3997;SDS011;61314;53.444;9.902;2022-10-16T16:07:33;7.43;;;1.93;;
3997;SDS011;61314;53.444;9.902;2022-10-16T16:10:00;3.43;;;1.60;;
3997;SDS011;61314;53.444;9.902;2022-10-16T16:12:27;1.63;;;1.23;;
3997;SDS011;61314;53.444;9.902;2022-10-16T16:14:54;6.90;;;1.30;;
3997;SDS011;61314;53.444;9.902;2022-10-16T16:17:21;1.73;;;1.17;;
3997;SDS011;61314;53.444;9.902;2022-10-16T16:19:50;4.77;;;1.53;;
3997;SDS011;61314;53.444;9.902;2022-10-16T16:22:17;5.00;;;1.57;;
3997;SDS011;61314;53.444;9.902;2022-10-16T16:24:44;4.50;;;1.50;;
3997;SDS011;61314;53.444;9.902;2022-10-16T16:27:11;3.67;;;1.17;;
3997;SDS011;61314;53.444;9.902;2022-10-16T16:29:39;6.50;;;2.10;;
3997;SDS011;61314;53.444;9.902;2022-10-16T16:32:06;4.30;;;1.20;;